Time;durP1;ratioP1;P1;durP2;ratioP2;P2;SDS_P1;SDS_P2;PMS_P1;PMS_P2;Temp;Humidity;BMP_temperature;BMP_pressure;BME280_temperature;BME280_humidity;BME280_pressure;Samples;Min_cycle;Max_cycle;Signal;HPM_P1;HPM_P2
2022/08/28 00:00:34;;;;;;;1.40;0.68;;;;;;;18.72;100.00;100397.94;7389187;19;20044;-56
2022/08/28 00:03:00;;;;;;;0.30;0.13;;;;;;;18.69;100.00;100403.84;7389383;19;20398;-56
2022/08/28 00:05:30;;;;;;;0.20;0.20;;;;;;;18.66;100.00;100399.22;7390413;19;20420;-56
2022/08/28 00:07:56;;;;;;;1.33;0.52;;;;;;;18.62;100.00;100404.38;7390879;19;20034;-56
2022/08/28 00:10:24;;;;;;;0.52;0.20;;;;;;;18.61;100.00;100411.28;7391220;19;20010;-56
2022/08/28 00:12:51;;;;;;;0.30;0.28;;;;;;;18.61;100.00;100406.41;7389810;19;20006;-56
2022/08/28 00:15:23;;;;;;;1.65;0.88;;;;;;;18.59;100.00;100416.69;7390653;19;20018;-56
2022/08/28 00:17:49;;;;;;;0.52;0.35;;;;;;;18.42;100.00;100410.28;7388943;19;20070;-56
2022/08/28 00:20:17;;;;;;;0.60;0.38;;;;;;;18.54;100.00;100420.28;7390170;19;20034;-56
2022/08/28 00:22:44;;;;;;;0.50;0.50;;;;;;;18.44;100.00;100404.91;7390819;19;20038;-56
2022/08/28 00:25:12;;;;;;;0.98;0.52;;;;;;;18.34;100.00;100412.13;7390866;19;20006;-56
2022/08/28 00:27:53;;;;;;;7.88;0.22;;;;;;;18.34;100.00;100417.75;7389210;19;20018;-56
2022/08/28 00:30:35;;;;;;;1.85;0.57;;;;;;;18.20;100.00;100419.56;7390688;19;20014;-57
2022/08/28 00:33:18;;;;;;;0.20;0.20;;;;;;;18.57;100.00;100407.97;7388921;19;20030;-56
2022/08/28 00:35:46;;;;;;;0.10;0.10;;;;;;;19.29;100.00;100405.59;7391013;19;20038;-56
2022/08/28 00:38:13;;;;;;;0.70;0.35;;;;;;;19.35;100.00;100411.25;7389337;19;20364;-56
2022/08/28 00:40:42;;;;;;;0.80;0.25;;;;;;;19.22;100.00;100411.81;7389356;19;20014;-56
2022/08/28 00:43:10;;;;;;;0.30;0.13;;;;;;;19.09;100.00;100402.38;7389656;19;20010;-56
2022/08/28 00:45:37;;;;;;;0.55;0.43;;;;;;;19.09;100.00;100414.44;7389554;19;20018;-56
2022/08/28 00:48:04;;;;;;;2.05;0.75;;;;;;;19.20;100.00;100414.38;7390274;19;20006;-56
2022/08/28 00:52:04;;;;;;;0.55;0.10;;;;;;;19.29;100.00;100405.59;7389676;19;20014;-56
2022/08/28 00:53:20;;;;;;;0.90;0.32;;;;;;;19.28;100.00;100408.94;7388835;19;20022;-56
2022/08/28 00:55:46;;;;;;;0.30;0.20;;;;;;;19.17;100.00;100415.41;7391323;19;20037;-56
2022/08/28 00:58:13;;;;;;;0.93;0.40;;;;;;;19.16;100.00;100413.91;7389969;19;20007;-56
2022/08/28 01:00:39;;;;;;;0.77;0.32;;;;;;;19.23;100.00;100399.19;7391281;19;20022;-56
2022/08/28 01:03:07;;;;;;;0.28;0.20;;;;;;;19.43;100.00;100404.50;7393431;19;20451;-56
2022/08/28 01:05:35;;;;;;;0.35;0.20;;;;;;;19.22;100.00;100406.16;7391029;19;20011;-57
2022/08/28 01:08:03;;;;;;;0.70;0.50;;;;;;;19.19;100.00;100400.78;7388718;19;20007;-57
2022/08/28 01:10:33;;;;;;;4.28;0.40;;;;;;;19.19;100.00;100397.97;7388046;19;20010;-56
2022/08/28 01:13:00;;;;;;;0.70;0.63;;;;;;;19.14;100.00;100410.84;7388812;19;20007;-56
2022/08/28 01:15:32;;;;;;;0.50;0.30;;;;;;;19.10;100.00;100404.66;7392682;19;20010;-56
2022/08/28 01:18:02;;;;;;;1.30;0.40;;;;;;;19.19;100.00;100406.44;7395135;19;20523;-56
2022/08/28 01:20:31;;;;;;;1.08;0.50;;;;;;;19.19;100.00;100401.53;7394853;19;20014;-56
2022/08/28 01:23:07;;;;;;;0.38;0.38;;;;;;;19.26;100.00;100403.81;7395981;19;20363;-56
2022/08/28 01:25:35;;;;;;;0.20;0.20;;;;;;;19.18;100.00;100400.03;7397643;19;20025;-56
2022/08/28 01:28:04;;;;;;;0.60;0.57;;;;;;;19.10;100.00;100404.66;7396463;19;20018;-56
2022/08/28 01:30:31;;;;;;;1.05;0.38;;;;;;;19.02;100.00;100403.69;7396095;19;20014;-56
2022/08/28 01:32:58;;;;;;;0.20;0.20;;;;;;;18.99;100.00;100398.31;7395901;19;20025;-56
2022/08/28 01:35:31;;;;;;;0.20;0.20;;;;;;;18.89;100.00;100401.44;7397101;19;20014;-56
2022/08/28 01:37:58;;;;;;;1.25;0.38;;;;;;;18.98;100.00;100393.94;7395126;19;20459;-56
2022/08/28 01:40:41;;;;;;;9.10;0.47;;;;;;;19.11;100.00;100394.91;7395972;19;20033;-57
2022/08/28 01:43:09;;;;;;;1.58;0.20;;;;;;;19.07;100.00;100393.66;7395947;19;20023;-56
2022/08/28 01:45:36;;;;;;;0.28;0.13;;;;;;;19.21;100.00;100403.88;7395086;19;20021;-56
2022/08/28 01:48:05;;;;;;;0.55;0.40;;;;;;;19.27;100.00;100394.06;7396530;19;20018;-56
2022/08/28 01:50:32;;;;;;;1.55;0.43;;;;;;;19.14;100.00;100399.53;7395152;19;20015;-56
2022/08/28 01:52:59;;;;;;;0.60;0.30;;;;;;;19.27;100.00;100396.91;7395467;19;20014;-56
2022/08/28 01:55:25;;;;;;;15.50;0.38;;;;;;;19.07;100.00;100400.06;7396187;19;20007;-56
2022/08/28 01:57:53;;;;;;;0.50;0.25;;;;;;;18.63;100.00;100403.84;7394709;19;20640;-56
2022/08/28 02:00:25;;;;;;;4.20;0.10;;;;;;;18.04;100.00;100404.19;7395261;19;20017;-56
2022/08/28 02:02:54;;;;;;;0.30;0.20;;;;;;;17.90;100.00;100402.44;7395700;19;20015;-56
2022/08/28 02:05:28;;;;;;;1.70;0.60;;;;;;;17.85;100.00;100403.19;7393975;19;20018;-56
2022/08/28 02:07:56;;;;;;;0.40;0.20;;;;;;;17.90;100.00;100410.88;7395411;19;20040;-56
2022/08/28 02:10:24;;;;;;;8.80;0.95;;;;;;;17.82;100.00;100418.28;7394761;19;20014;-56
2022/08/28 02:12:51;;;;;;;0.30;0.17;;;;;;;17.80;100.00;100415.22;7393694;19;20077;-56
2022/08/28 02:15:18;;;;;;;0.30;0.30;;;;;;;17.84;100.00;100414.97;7394298;19;20010;-56
2022/08/28 02:17:44;;;;;;;2.92;0.45;;;;;;;17.82;100.00;100415.47;7392785;19;20347;-56
2022/08/28 02:20:11;;;;;;;1.10;0.20;;;;;;;17.79;100.00;100413.69;7393177;19;20014;-56
2022/08/28 02:22:37;;;;;;;0.20;0.20;;;;;;;17.72;100.00;100413.41;7393023;19;20006;-56
2022/08/28 02:25:04;;;;;;;0.10;0.10;;;;;;;17.60;100.00;100418.28;7394349;19;20094;-56
2022/08/28 02:27:30;;;;;;;0.10;0.05;;;;;;;17.52;100.00;100417.25;7391798;19;20017;-56
2022/08/28 02:29:57;;;;;;;0.20;0.10;;;;;;;17.42;100.00;100418.75;7393784;19;20034;-56
2022/08/28 02:32:25;;;;;;;0.43;0.28;;;;;;;17.36;100.00;100418.75;7393301;19;20042;-56
2022/08/28 02:34:51;;;;;;;1.50;0.30;;;;;;;17.29;100.00;100429.72;7392863;19;20010;-56
2022/08/28 02:37:17;;;;;;;0.45;0.00;;;;;;;17.32;100.00;100420.25;7393792;19;20019;-56
2022/08/28 02:39:43;;;;;;;0.17;0.17;;;;;;;17.24;100.00;100424.84;7391691;19;20014;-56
2022/08/28 02:42:09;;;;;;;0.68;0.25;;;;;;;17.12;100.00;100428.91;7393763;19;20033;-56
2022/08/28 02:44:36;;;;;;;0.95;0.55;;;;;;;17.12;100.00;100423.28;7393129;19;20014;-56
2022/08/28 02:47:02;;;;;;;0.25;0.20;;;;;;;17.04;100.00;100427.84;7397512;19;20123;-56
2022/08/28 02:49:29;;;;;;;0.63;0.35;;;;;;;16.93;100.00;100427.81;7393300;19;20018;-56
2022/08/28 02:51:57;;;;;;;0.10;0.00;;;;;;;16.84;100.00;100422.41;7393927;19;20015;-56
2022/08/28 02:54:25;;;;;;;0.20;0.17;;;;;;;16.73;100.00;100425.94;7392884;19;20029;-56
2022/08/28 02:56:54;;;;;;;2.10;0.57;;;;;;;16.63;100.00;100422.56;7396081;19;20526;-56
2022/08/28 02:59:20;;;;;;;0.38;0.35;;;;;;;16.59;100.00;100418.44;7395506;19;20015;-56
2022/08/28 03:01:47;;;;;;;1.20;0.17;;;;;;;16.51;100.00;100417.38;7391788;19;20011;-56
2022/08/28 03:04:13;;;;;;;0.40;0.32;;;;;;;16.44;100.00;100421.41;7392283;19;20014;-56
2022/08/28 03:06:39;;;;;;;0.50;0.20;;;;;;;16.34;100.00;100420.06;7396190;19;20017;-56
2022/08/28 03:09:05;;;;;;;0.90;0.28;;;;;;;16.31;100.00;100423.88;7392357;19;20010;-56
2022/08/28 03:11:32;;;;;;;0.52;0.35;;;;;;;16.29;100.00;100432.03;7395412;19;20018;-56
2022/08/28 03:14:02;;;;;;;0.10;0.10;;;;;;;16.23;100.00;100428.41;7392497;19;20021;-56
2022/08/28 03:16:29;;;;;;;0.38;0.38;;;;;;;16.18;100.00;100431.97;7394310;19;20340;-56
2022/08/28 03:18:55;;;;;;;0.65;0.47;;;;;;;16.15;100.00;100432.97;7389853;19;20019;-56
2022/08/28 03:21:21;;;;;;;0.85;0.45;;;;;;;16.03;100.00;100434.13;7390339;19;20417;-56
2022/08/28 03:23:48;;;;;;;0.20;0.10;;;;;;;16.84;100.00;100422.41;7391934;19;20529;-56
2022/08/28 03:26:17;;;;;;;0.43;0.30;;;;;;;17.08;100.00;100425.56;7394498;19;20014;-56
2022/08/28 03:28:46;;;;;;;2.75;0.40;;;;;;;17.08;100.00;100426.34;7393354;19;20082;-56
2022/08/28 03:31:16;;;;;;;0.43;0.30;;;;;;;17.03;100.00;100420.69;7392422;19;20021;-56
2022/08/28 03:33:43;;;;;;;0.20;0.20;;;;;;;17.00;100.00;100422.44;7392127;19;20616;-56
2022/08/28 03:36:11;;;;;;;1.85;0.40;;;;;;;17.22;100.00;100416.13;7393754;19;20042;-56
2022/08/28 03:38:38;;;;;;;1.45;0.20;;;;;;;17.03;100.00;100415.03;7389853;19;20010;-56
2022/08/28 03:41:10;;;;;;;0.95;0.63;;;;;;;17.06;100.00;100417.63;7391828;19;20011;-56
2022/08/28 03:43:36;;;;;;;3.10;0.20;;;;;;;17.08;100.00;100423.53;7392121;19;20014;-56
2022/08/28 03:46:04;;;;;;;0.10;0.10;;;;;;;16.86;100.00;100425.47;7394316;19;20022;-56
2022/08/28 03:48:35;;;;;;;4.05;0.20;;;;;;;16.93;100.00;100430.63;7392373;19;20018;-56
2022/08/28 03:51:05;;;;;;;;;;;;;;;16.88;100.00;100431.38;7391894;19;20014;-56
2022/08/28 03:53:31;;;;;;;0.50;0.20;;;;;;;16.63;100.00;100422.56;7391466;19;20358;-56
2022/08/28 03:55:58;;;;;;;0.20;0.20;;;;;;;16.66;100.00;100427.19;7392337;19;20377;-56
2022/08/28 03:58:24;;;;;;;0.60;0.60;;;;;;;16.63;100.00;100421.81;7392048;19;20131;-56
2022/08/28 04:00:51;;;;;;;0.45;0.10;;;;;;;16.63;100.00;100419.72;7391168;19;20566;-56
2022/08/28 04:03:18;;;;;;;0.43;0.30;;;;;;;16.65;100.00;100414.38;7391397;19;20018;-56
2022/08/28 04:05:45;;;;;;;0.43;0.22;;;;;;;16.64;100.00;100414.88;7392024;19;20018;-56
2022/08/28 04:08:14;;;;;;;0.90;0.20;;;;;;;16.57;100.00;100423.78;7391043;19;20451;-56
2022/08/28 04:10:44;;;;;;;3.92;0.75;;;;;;;16.56;100.00;100417.41;7393750;19;20467;-56
2022/08/28 04:13:13;;;;;;;0.55;0.30;;;;;;;16.61;100.00;100416.66;7393116;19;20045;-56
2022/08/28 04:15:40;;;;;;;0.40;0.40;;;;;;;16.57;100.00;100418.94;7392900;19;20042;-56
2022/08/28 04:18:07;;;;;;;0.35;0.28;;;;;;;16.72;100.00;100423.63;7389673;19;20470;-56
2022/08/28 04:20:33;;;;;;;0.65;0.22;;;;;;;16.72;100.00;100415.94;7390751;19;20018;-56
2022/08/28 04:23:02;;;;;;;1.10;0.65;;;;;;;16.61;100.00;100419.47;7390713;19;20018;-56
2022/08/28 04:25:29;;;;;;;0.28;0.28;;;;;;;16.68;100.00;100423.84;7391038;19;20003;-56
2022/08/28 04:27:56;;;;;;;0.52;0.52;;;;;;;16.60;100.00;100443.25;7391776;19;20014;-56
2022/08/28 04:30:23;;;;;;;0.57;0.57;;;;;;;16.68;100.00;100426.66;7391061;19;20018;-56
2022/08/28 04:32:49;;;;;;;0.45;0.40;;;;;;;16.42;100.00;100435.19;7389937;19;20018;-56
2022/08/28 04:35:15;;;;;;;0.50;0.50;;;;;;;16.41;100.00;100433.66;7390629;19;20014;-56
2022/08/28 04:37:44;;;;;;;0.40;0.20;;;;;;;16.50;100.00;100433.47;7389584;19;20015;-56
2022/08/28 04:40:13;;;;;;;0.30;0.30;;;;;;;16.36;100.00;100437.19;7389840;19;20014;-56
2022/08/28 04:42:39;;;;;;;0.55;0.15;;;;;;;16.24;100.00;100434.81;7389398;19;20010;-56
2022/08/28 04:45:06;;;;;;;0.30;0.30;;;;;;;16.48;100.00;100438.78;7389970;19;20018;-56
2022/08/28 04:47:36;;;;;;;0.40;0.30;;;;;;;16.59;100.00;100438.13;7390693;19;20014;-56
2022/08/28 04:50:05;;;;;;;0.85;0.20;;;;;;;16.57;100.00;100440.66;7395006;19;20019;-56
2022/08/28 04:52:31;;;;;;;0.30;0.20;;;;;;;16.68;100.00;100444.31;7403348;19;20014;-56
2022/08/28 04:54:57;;;;;;;3.72;0.32;;;;;;;16.06;100.00;100444.41;7403773;19;20038;-56
2022/08/28 04:57:24;;;;;;;0.28;0.22;;;;;;;15.44;100.00;100442.28;7402707;19;20010;-56
2022/08/28 04:59:50;;;;;;;0.38;0.15;;;;;;;15.35;100.00;100455.69;7403312;19;20369;-56
2022/08/28 05:02:16;;;;;;;2.47;0.40;;;;;;;15.23;100.00;100449.19;7403093;19;20010;-56
2022/08/28 05:04:42;;;;;;;0.82;0.45;;;;;;;15.17;100.00;100453.97;7403723;19;20399;-56
2022/08/28 05:07:08;;;;;;;0.43;0.43;;;;;;;15.15;100.00;100459.28;7407535;19;20014;-56
2022/08/28 05:09:34;;;;;;;1.85;0.20;;;;;;;15.12;100.00;100460.25;7402857;19;20014;-56
2022/08/28 05:12:02;;;;;;;0.30;0.30;;;;;;;15.16;100.00;100458.00;7406513;19;20329;-56
2022/08/28 05:14:29;;;;;;;0.73;0.15;;;;;;;15.14;100.00;100463.34;7403033;19;20022;-56
2022/08/28 05:16:56;;;;;;;0.63;0.30;;;;;;;15.14;100.00;100474.56;7406893;19;20029;-56
2022/08/28 05:19:24;;;;;;;0.63;0.40;;;;;;;15.09;100.00;100464.81;7404849;19;20014;-56
2022/08/28 05:21:51;;;;;;;0.43;0.43;;;;;;;15.06;100.00;100465.81;7403890;19;20454;-56
2022/08/28 05:24:17;;;;;;;0.50;0.30;;;;;;;15.08;100.00;100468.91;7403117;19;20082;-56
2022/08/28 05:26:44;;;;;;;0.30;0.20;;;;;;;15.06;100.00;100474.25;7406522;19;20427;-56
2022/08/28 05:29:11;;;;;;;1.30;0.35;;;;;;;15.08;100.00;100474.50;7406202;19;20038;-56
2022/08/28 05:31:40;;;;;;;0.40;0.38;;;;;;;15.08;100.00;100477.31;7400735;19;20018;-56
2022/08/28 05:34:06;;;;;;;7.40;0.50;;;;;;;15.11;100.00;100478.38;7401480;19;20016;-56
2022/08/28 05:36:35;;;;;;;0.35;0.28;;;;;;;15.12;100.00;100477.88;7404078;19;20024;-56
2022/08/28 05:39:05;;;;;;;0.20;0.17;;;;;;;15.11;100.00;100481.97;7400067;19;20021;-56
2022/08/28 05:41:31;;;;;;;0.47;0.40;;;;;;;15.14;100.00;100471.75;7402767;19;20033;-56
2022/08/28 05:44:00;;;;;;;1.95;0.85;;;;;;;15.18;100.00;100489.94;7402907;19;20220;-56
2022/08/28 05:46:27;;;;;;;0.43;0.35;;;;;;;15.25;100.00;100480.31;7404395;19;20007;-56
2022/08/28 05:48:54;;;;;;;1.27;0.30;;;;;;;15.33;100.00;100483.47;7402927;19;20014;-56
2022/08/28 05:51:23;;;;;;;0.30;0.30;;;;;;;15.35;100.00;100489.38;7401334;19;20037;-56
2022/08/28 05:53:49;;;;;;;0.35;0.28;;;;;;;15.37;100.00;100492.44;7402075;19;20010;-56
2022/08/28 05:56:23;;;;;;;0.20;0.20;;;;;;;15.25;100.00;100491.53;7405110;19;20021;-56
2022/08/28 05:58:49;;;;;;;0.95;0.57;;;;;;;16.40;100.00;100488.34;7402912;19;20578;-56
2022/08/28 06:01:26;;;;;;;0.65;0.60;;;;;;;16.68;100.00;100486.50;7397560;19;20014;-56
2022/08/28 06:04:03;;;;;;;0.30;0.20;;;;;;;15.85;100.00;100488.63;7392833;19;20025;-56
2022/08/28 06:06:33;;;;;;;1.40;0.47;;;;;;;15.73;100.00;100497.47;7397526;19;20011;-56
2022/08/28 06:09:02;;;;;;;0.98;0.45;;;;;;;15.74;100.00;100496.22;7394063;19;20462;-56
2022/08/28 06:11:29;;;;;;;2.40;0.77;;;;;;;15.82;100.00;100500.09;7396658;19;20010;-56
2022/08/28 06:13:59;;;;;;;4.90;1.17;;;;;;;15.83;100.00;100501.66;7395326;19;20017;-56
2022/08/28 06:16:25;;;;;;;3.72;1.23;;;;;;;15.90;100.00;100504.00;7397083;19;20526;-56
2022/08/28 06:18:51;;;;;;;1.65;1.13;;;;;;;16.01;100.00;100518.16;7392246;19;20568;-56
2022/08/28 06:21:17;;;;;;;1.85;0.57;;;;;;;16.14;100.00;100512.13;7391994;19;20022;-56
2022/08/28 06:23:43;;;;;;;1.10;0.93;;;;;;;16.19;100.00;100512.19;7394700;19;20011;-56
2022/08/28 06:26:10;;;;;;;5.55;0.88;;;;;;;16.49;100.00;100516.25;7396571;19;20066;-56
2022/08/28 06:28:38;;;;;;;0.90;0.55;;;;;;;16.65;100.00;100512.81;7395425;19;20066;-56
2022/08/28 06:31:04;;;;;;;1.67;0.57;;;;;;;16.83;100.00;100513.72;7396288;19;20074;-56
2022/08/28 06:33:30;;;;;;;0.98;0.32;;;;;;;17.00;100.00;100506.88;7396967;19;20014;-56
2022/08/28 06:35:56;;;;;;;0.88;0.52;;;;;;;17.57;100.00;100500.97;7395917;19;20011;-56
2022/08/28 06:38:25;;;;;;;1.75;0.40;;;;;;;17.88;100.00;100503.63;7394607;19;20511;-56
2022/08/28 06:40:54;;;;;;;4.38;0.30;;;;;;;18.34;100.00;100496.72;7395492;19;20373;-56
2022/08/28 06:43:23;;;;;;;1.27;0.55;;;;;;;18.47;100.00;100503.41;7396378;19;20101;-56
2022/08/28 06:45:53;;;;;;;0.30;0.30;;;;;;;18.61;100.00;100510.03;7395342;19;20015;-57
2022/08/28 06:48:22;;;;;;;2.67;0.80;;;;;;;18.77;100.00;100506.44;7396978;19;20495;-56
2022/08/28 06:50:51;;;;;;;10.10;2.13;;;;;;;19.09;100.00;100509.66;7394450;19;20021;-57
2022/08/28 06:53:20;;;;;;;8.60;2.25;;;;;;;19.28;100.00;100511.38;7396257;19;20019;-56
2022/08/28 06:55:57;;;;;;;11.85;3.35;;;;;;;19.28;100.00;100511.38;7396126;19;20428;-56
2022/08/28 06:58:24;;;;;;;2.75;1.42;;;;;;;19.26;100.00;100511.13;7392874;19;20726;-56
2022/08/28 07:00:51;;;;;;;2.25;1.15;;;;;;;19.18;100.00;100507.31;7393020;19;20056;-56
2022/08/28 07:03:17;;;;;;;4.93;0.60;;;;;;;19.21;100.00;100514.75;7393076;19;20031;-57
2022/08/28 07:05:44;;;;;;;2.72;0.90;;;;;;;19.37;100.00;100524.47;7394497;19;20014;-56
2022/08/28 07:08:10;;;;;;;2.55;1.13;;;;;;;19.62;100.00;100518.44;7392404;19;20498;-56
2022/08/28 07:10:36;;;;;;;2.60;0.68;;;;;;;19.50;100.00;100516.97;7392990;19;20014;-57
2022/08/28 07:13:04;;;;;;;2.65;0.85;;;;;;;19.48;100.00;100525.19;7389721;19;20014;-56
2022/08/28 07:15:30;;;;;;;0.90;0.50;;;;;;;19.82;100.00;100516.50;7393911;19;20011;-56
2022/08/28 07:17:57;;;;;;;0.93;0.65;;;;;;;19.95;100.00;100520.28;7391958;19;20010;-56
2022/08/28 07:20:23;;;;;;;1.10;0.77;;;;;;;20.05;100.00;100532.06;7391798;19;20458;-56
2022/08/28 07:22:50;;;;;;;2.92;0.95;;;;;;;19.94;100.00;100532.13;7393248;19;20038;-56
2022/08/28 07:25:16;;;;;;;1.13;0.47;;;;;;;20.20;100.00;100535.28;7396277;19;20116;-56
2022/08/28 07:27:42;;;;;;;1.70;0.70;;;;;;;20.22;100.00;100530.66;7396382;19;20364;-56
2022/08/28 07:30:11;;;;;;;0.40;0.40;;;;;;;20.18;100.00;100535.03;7392728;19;20018;-56
2022/08/28 07:32:38;;;;;;;2.38;0.50;;;;;;;20.21;100.00;100534.00;7391392;19;20100;-56
2022/08/28 07:35:04;;;;;;;0.32;0.32;;;;;;;20.33;100.00;100546.78;7392356;19;20027;-56
2022/08/28 07:37:30;;;;;;;3.47;0.98;;;;;;;20.45;100.00;100545.38;7391310;19;20006;-56
2022/08/28 07:39:56;;;;;;;8.15;0.75;;;;;;;20.42;100.00;100547.19;7390152;19;20011;-56
2022/08/28 07:45:08;;;;;;;0.20;0.10;;;;;;;20.59;100.00;100538.59;7390089;19;20024;-56
2022/08/28 07:47:35;;;;;;;0.70;0.47;;;;;;;20.80;100.00;100536.84;7390870;19;20002;-56
2022/08/28 07:50:02;;;;;;;0.70;0.20;;;;;;;20.73;100.00;100545.13;7390589;19;20021;-56
2022/08/28 07:52:28;;;;;;;4.22;0.63;;;;;;;20.69;100.00;100542.59;7390955;19;20019;-56
2022/08/28 07:54:54;;;;;;;0.55;0.30;;;;;;;20.69;100.00;100551.09;7389286;19;20044;-57
2022/08/28 07:57:21;;;;;;;1.00;0.60;;;;;;;20.85;100.00;100549.41;7390581;19;20526;-57
2022/08/28 07:59:48;;;;;;;0.75;0.40;;;;;;;20.92;100.00;100546.00;7391208;19;20463;-57
2022/08/28 08:02:14;;;;;;;0.63;0.10;;;;;;;21.07;100.00;100549.94;7393688;19;20017;-56
2022/08/28 08:04:40;;;;;;;0.55;0.20;;;;;;;21.22;100.00;100557.28;7394148;19;20010;-57
2022/08/28 08:07:07;;;;;;;1.63;0.38;;;;;;;21.19;100.00;100547.00;7394022;19;20034;-56
2022/08/28 08:09:42;;;;;;;0.65;0.17;;;;;;;21.05;100.00;100552.53;7389548;19;20018;-56
2022/08/28 08:12:09;;;;;;;0.13;0.13;;;;;;;20.93;100.00;100550.34;7394284;19;20014;-56
2022/08/28 08:14:37;;;;;;;5.38;0.52;;;;;;;21.05;100.00;100554.63;7390639;19;20019;-56
2022/08/28 08:17:04;;;;;;;3.30;0.35;;;;;;;21.17;100.00;100549.59;7395218;19;20024;-56
2022/08/28 08:19:31;;;;;;;0.55;0.22;;;;;;;21.10;100.00;100557.41;7390076;19;20046;-56
2022/08/28 08:21:57;;;;;;;0.10;0.10;;;;;;;21.00;100.00;100553.38;7390310;19;20014;-56
2022/08/28 08:24:25;;;;;;;3.97;0.30;;;;;;;20.98;100.00;100550.28;7388815;19;20034;-56
2022/08/28 08:26:54;;;;;;;0.43;0.30;;;;;;;21.28;100.00;100555.13;7393467;19;20017;-56
2022/08/28 08:29:20;;;;;;;2.83;0.25;;;;;;;21.42;100.00;100553.94;7393960;19;20010;-56
2022/08/28 08:31:57;;;;;;;0.60;0.22;;;;;;;21.33;100.00;100554.31;7390631;19;20471;-56
2022/08/28 08:34:24;;;;;;;0.77;0.28;;;;;;;21.11;100.00;100558.91;7389416;19;20018;-56
2022/08/28 08:36:50;;;;;;;0.10;0.10;;;;;;;21.19;100.00;100561.16;7394070;19;20006;-56
2022/08/28 08:39:16;;;;;;;0.10;0.10;;;;;;;21.39;100.00;100563.50;7388013;19;20011;-56
2022/08/28 08:41:50;;;;;;;0.20;0.10;;;;;;;21.55;100.00;100557.63;7390153;19;20010;-57
2022/08/28 08:44:40;;;;;;;0.10;0.08;;;;;;;21.62;100.00;100554.19;7388931;19;20019;-56
2022/08/28 08:47:24;;;;;;;1.77;0.45;;;;;;;21.84;100.00;100558.81;7392852;19;20011;-56
2022/08/28 08:50:16;;;;;;;0.10;0.00;;;;;;;22.23;100.00;100558.22;7389640;19;20010;-56
2022/08/28 08:53:05;;;;;;;0.20;0.10;;;;;;;21.95;100.00;100558.66;7390069;19;20432;-56
2022/08/28 08:55:48;;;;;;;4.05;0.20;;;;;;;21.72;100.00;100560.25;7390961;19;20002;-56
2022/08/28 08:58:38;;;;;;;0.10;0.10;;;;;;;22.25;100.00;100549.94;7389496;19;20077;-57
2022/08/28 09:01:16;;;;;;;0.40;0.00;;;;;;;22.51;100.00;100562.16;7388357;19;20014;-56
2022/08/28 09:04:07;;;;;;;1.65;0.40;;;;;;;22.71;100.00;100551.53;7389456;19;20018;-57
2022/08/28 09:06:58;;;;;;;0.90;0.10;;;;;;;22.91;100.00;100548.06;7391540;19;20018;-57
2022/08/28 09:09:39;;;;;;;0.28;0.03;;;;;;;22.93;100.00;100545.44;7388715;19;20579;-56
2022/08/28 09:12:11;;;;;;;0.55;0.30;;;;;;;22.65;100.00;100548.81;7392916;19;20019;-57
2022/08/28 09:15:04;;;;;;;0.30;0.15;;;;;;;22.93;100.00;100546.22;7388750;19;20356;-57
2022/08/28 09:17:36;;;;;;;0.63;0.10;;;;;;;23.25;100.00;100551.78;7387820;19;20031;-57
2022/08/28 09:20:08;;;;;;;0.10;0.10;;;;;;;23.59;100.00;100544.13;7388657;19;20014;-56
2022/08/28 09:22:41;;;;;;;0.10;0.00;;;;;;;23.61;100.00;100540.72;7387440;19;20463;-57
2022/08/28 09:25:09;;;;;;;0.00;0.00;;;;;;;23.40;100.00;100549.19;7388031;19;20018;-57
2022/08/28 09:27:43;;;;;;;0.10;0.10;;;;;;;23.63;100.00;100538.88;7388569;19;20030;-57
2022/08/28 09:30:10;;;;;;;0.32;0.10;;;;;;;23.84;100.00;100542.56;7388121;19;20022;-57
2022/08/28 09:32:56;;;;;;;0.38;0.20;;;;;;;24.23;100.00;100538.81;7387941;19;20015;-57
2022/08/28 09:35:22;;;;;;;0.32;0.15;;;;;;;24.16;100.00;100538.72;7389782;19;20011;-57
2022/08/28 09:37:49;;;;;;;0.10;0.10;;;;;;;24.32;100.00;100546.13;7395277;19;20010;-57
2022/08/28 09:40:15;;;;;;;0.75;0.63;;;;;;;24.49;100.00;100535.84;7395535;19;20022;-57
2022/08/28 09:45:53;;;;;;;0.00;0.00;;;;;;;24.92;100.00;100535.25;7396878;19;20002;-57
2022/08/28 09:48:23;;;;;;;0.20;0.20;;;;;;;25.14;100.00;100543.19;7395138;19;20015;-57
2022/08/28 09:51:02;;;;;;;0.10;0.10;;;;;;;25.11;100.00;100537.84;7393824;19;20024;-57
2022/08/28 09:53:30;;;;;;;0.30;0.08;;;;;;;24.97;100.00;100542.88;7395102;19;20014;-57
2022/08/28 09:56:33;;;;;;;0.15;0.05;;;;;;;25.15;100.00;100547.56;7397753;19;20064;-57
2022/08/28 09:59:04;;;;;;;0.10;0.00;;;;;;;25.35;100.00;100549.59;7396405;19;20015;-57
2022/08/28 10:01:49;;;;;;;0.00;0.00;;;;;;;25.54;100.00;100560.72;7394369;19;20018;-57
2022/08/28 10:04:28;;;;;;;0.20;0.00;;;;;;;25.52;100.00;100564.16;7394305;19;20007;-57
2022/08/28 10:07:03;;;;;;;1.80;0.17;;;;;;;25.67;100.00;100562.69;7398268;19;20509;-57
2022/08/28 10:09:39;;;;;;;1.20;0.10;;;;;;;25.92;100.00;100563.75;7394532;19;20046;-57
2022/08/28 10:12:05;;;;;;;0.17;0.00;;;;;;;25.93;100.00;100565.25;7398282;19;20010;-57
2022/08/28 10:14:43;;;;;;;0.10;0.10;;;;;;;25.87;100.00;100558.97;7394034;19;20011;-57
2022/08/28 10:17:24;;;;;;;4.47;0.20;;;;;;;26.06;100.00;100547.97;7398533;19;20007;-57
2022/08/28 10:20:08;;;;;;;1.08;0.20;;;;;;;26.13;100.00;100553.75;7393201;19;20478;-57
2022/08/28 10:23:11;;;;;;;4.95;0.28;;;;;;;26.44;100.00;100557.44;7394579;19;20031;-57
2022/08/28 10:25:55;;;;;;;0.10;0.10;;;;;;;26.47;100.00;100556.28;7394648;19;20066;-57
2022/08/28 10:28:30;;;;;;;0.73;0.20;;;;;;;26.54;100.00;100555.53;7395883;19;20021;-57
2022/08/28 10:31:23;;;;;;;0.40;0.10;;;;;;;26.53;100.00;100551.13;7394367;19;20011;-57
2022/08/28 10:33:55;;;;;;;1.73;0.15;;;;;;;25.48;100.00;100563.00;7393548;19;20014;-57
2022/08/28 10:36:27;;;;;;;0.40;0.00;;;;;;;24.91;100.00;100556.50;7398512;19;20010;-58
2022/08/28 10:39:17;;;;;;;1.23;0.10;;;;;;;24.66;100.00;100561.03;7395914;19;20006;-58
2022/08/28 10:41:55;;;;;;;1.75;0.20;;;;;;;24.50;100.00;100560.13;7396001;19;20015;-57
2022/08/28 10:44:47;;;;;;;0.43;0.10;;;;;;;24.57;100.00;100556.59;7394051;19;20389;-57
2022/08/28 10:47:14;;;;;;;0.57;0.10;;;;;;;24.62;100.00;100557.78;7396760;19;20010;-58
2022/08/28 10:49:44;;;;;;;0.05;0.00;;;;;;;24.89;100.00;100553.47;7394019;19;20359;-57
2022/08/28 10:52:22;;;;;;;0.85;0.35;;;;;;;25.03;100.00;100557.75;7392733;19;20366;-57
2022/08/28 10:54:53;;;;;;;0.75;0.10;;;;;;;24.98;100.00;100561.50;7393472;19;20019;-57
2022/08/28 10:57:33;;;;;;;0.10;0.08;;;;;;;25.02;100.00;100561.91;7391701;19;20025;-57
2022/08/28 11:00:09;;;;;;;0.32;0.20;;;;;;;25.18;100.00;100562.78;7391778;19;20015;-57
2022/08/28 11:02:36;;;;;;;0.90;0.17;;;;;;;25.22;100.00;100561.09;7392098;19;20007;-57
2022/08/28 11:05:04;;;;;;;0.43;0.13;;;;;;;25.30;100.00;100559.06;7393537;19;20014;-57
2022/08/28 11:07:36;;;;;;;0.40;0.10;;;;;;;25.18;100.00;100555.00;7393249;19;20088;-57
2022/08/28 11:10:34;;;;;;;0.10;0.03;;;;;;;25.27;100.00;100560.19;7392569;19;20006;-58
2022/08/28 11:13:02;;;;;;;0.08;0.00;;;;;;;25.44;100.00;100560.50;7390125;19;20011;-57
2022/08/28 11:15:30;;;;;;;3.50;0.10;;;;;;;25.49;100.00;100559.56;7391992;19;20025;-58
2022/08/28 11:18:12;;;;;;;0.40;0.10;;;;;;;25.50;100.00;100561.09;7391653;19;20024;-57
2022/08/28 11:20:42;;;;;;;0.10;0.10;;;;;;;25.61;100.00;100565.72;7392638;19;20022;-57
2022/08/28 11:23:19;;;;;;;0.00;0.00;;;;;;;25.39;100.00;100560.63;7393000;19;20030;-57
2022/08/28 11:26:00;;;;;;;0.08;0.00;;;;;;;25.47;100.00;100555.75;7394083;19;20010;-57
2022/08/28 11:28:33;;;;;;;1.55;0.10;;;;;;;26.75;100.00;100561.84;7394962;19;20649;-57
2022/08/28 11:31:05;;;;;;;1.55;0.30;;;;;;;27.10;100.00;100550.75;7392910;19;20015;-58
2022/08/28 11:33:51;;;;;;;0.40;0.10;;;;;;;27.50;100.00;100548.78;7391203;19;20022;-58
2022/08/28 11:36:20;;;;;;;1.17;0.17;;;;;;;27.52;100.00;100552.59;7393834;19;20011;-57